createdAt,value
2023-04-21T00:00:53.949Z,17.47
2023-04-21T00:03:22.575Z,17.42
2023-04-21T00:05:50.674Z,18.08
2023-04-21T00:08:18.600Z,18.18
2023-04-21T00:10:46.660Z,18.22
2023-04-21T00:13:13.719Z,18.04
2023-04-21T00:15:40.620Z,18.28
2023-04-21T00:18:07.308Z,18.52
2023-04-21T00:20:33.929Z,18.73
2023-04-21T00:23:00.550Z,18.94
2023-04-21T00:25:27.118Z,18.58
2023-04-21T00:27:53.735Z,19.13
2023-04-21T00:30:20.411Z,19.32
2023-04-21T00:32:47.133Z,19.97
2023-04-21T00:35:13.897Z,20.43
2023-04-21T00:37:41.544Z,20.33
2023-04-21T00:40:09.061Z,20.65
2023-04-21T00:42:35.810Z,20.83
2023-04-21T00:45:03.866Z,21.49
2023-04-21T00:47:31.057Z,21.61
2023-04-21T00:49:58.916Z,21.76
2023-04-21T00:52:26.790Z,22.01
2023-04-21T00:54:54.102Z,21.77
2023-04-21T00:57:21.036Z,21.65
2023-04-21T00:59:48.324Z,22.15
2023-04-21T01:02:16.664Z,22.17
2023-04-21T01:04:45.472Z,21.82
2023-04-21T01:07:12.746Z,22.09
2023-04-21T01:09:39.426Z,22.41
2023-04-21T01:12:07.055Z,22.94
2023-04-21T01:14:33.728Z,22.34
2023-04-21T01:17:00.411Z,22.50
2023-04-21T01:19:31.317Z,23.21
2023-04-21T01:22:00.584Z,22.84
2023-04-21T01:24:41.306Z,22.83
2023-04-21T01:27:12.800Z,22.85
2023-04-21T01:29:41.816Z,23.50
2023-04-21T01:32:12.228Z,23.32
2023-04-21T01:34:40.109Z,23.21
2023-04-21T01:37:13.949Z,23.31
2023-04-21T01:39:43.482Z,23.04
2023-04-21T01:42:10.381Z,23.28
2023-04-21T01:44:37.340Z,23.76
2023-04-21T01:47:04.636Z,23.89
2023-04-21T01:49:31.153Z,24.16
2023-04-21T01:51:57.789Z,23.87
2023-04-21T01:54:24.398Z,24.27
2023-04-21T01:56:51.166Z,24.41
2023-04-21T01:59:18.050Z,23.88
2023-04-21T02:01:45.104Z,24.17
2023-04-21T02:04:11.848Z,24.12
2023-04-21T02:06:38.430Z,25.05
2023-04-21T02:09:05.300Z,24.24
2023-04-21T02:11:31.840Z,24.35
2023-04-21T02:13:58.621Z,25.01
2023-04-21T02:16:28.478Z,25.03
2023-04-21T02:18:57.005Z,24.97
2023-04-21T02:21:27.546Z,25.04
2023-04-21T02:23:54.274Z,24.63
2023-04-21T02:26:21.214Z,24.67
2023-04-21T02:28:47.972Z,24.26
2023-04-21T02:31:14.595Z,24.79
2023-04-21T02:33:41.458Z,25.79
2023-04-21T02:36:08.168Z,24.59
2023-04-21T02:38:34.808Z,24.76
2023-04-21T02:41:01.498Z,24.43
2023-04-21T02:43:28.068Z,24.85
2023-04-21T02:45:54.583Z,24.66
2023-04-21T02:48:23.067Z,24.80
2023-04-21T02:50:50.705Z,24.77
2023-04-21T02:53:17.293Z,24.67
2023-04-21T02:55:44.074Z,25.27
2023-04-21T02:58:10.978Z,25.24
2023-04-21T03:00:37.712Z,24.37
2023-04-21T03:03:04.469Z,24.77
2023-04-21T03:05:31.129Z,25.16
2023-04-21T03:07:57.666Z,24.72
2023-04-21T03:10:24.210Z,23.91
2023-04-21T03:12:50.740Z,24.34
2023-04-21T03:15:17.713Z,24.47
2023-04-21T03:17:44.406Z,25.07
2023-04-21T03:20:12.727Z,25.27
2023-04-21T03:22:39.418Z,25.27
2023-04-21T03:25:07.415Z,24.60
2023-04-21T03:27:34.715Z,24.84
2023-04-21T03:30:01.412Z,24.36
2023-04-21T03:32:28.109Z,24.77
2023-04-21T03:34:54.805Z,24.63
2023-04-21T03:37:21.340Z,24.30
2023-04-21T03:39:47.927Z,24.08
2023-04-21T03:42:14.530Z,23.78
2023-04-21T03:44:41.218Z,23.85
2023-04-21T03:47:07.794Z,24.28
2023-04-21T03:49:34.897Z,24.53
2023-04-21T03:52:01.685Z,24.41
2023-04-21T03:54:28.205Z,24.65
2023-04-21T03:56:54.736Z,24.59
2023-04-21T03:59:21.581Z,24.65
2023-04-21T04:01:48.233Z,24.25
2023-04-21T04:04:15.444Z,24.42
2023-04-21T04:06:42.245Z,24.18
2023-04-21T04:09:09.113Z,24.41
2023-04-21T04:11:35.920Z,24.80
2023-04-21T04:14:02.588Z,24.72
2023-04-21T04:16:29.400Z,25.29
2023-04-21T04:18:56.476Z,25.17
2023-04-21T04:21:23.090Z,25.06
2023-04-21T04:23:52.204Z,24.92
2023-04-21T04:26:25.109Z,25.66
2023-04-21T04:28:56.369Z,24.82
2023-04-21T04:31:25.469Z,25.06
2023-04-21T04:33:55.005Z,24.89
2023-04-21T04:36:22.541Z,24.77
2023-04-21T04:38:49.102Z,25.05
2023-04-21T04:41:19.468Z,24.79
2023-04-21T04:43:46.484Z,24.22
2023-04-21T04:46:13.365Z,25.50
2023-04-21T04:48:40.689Z,25.43
2023-04-21T04:51:07.615Z,24.17
2023-04-21T04:53:34.198Z,25.22
2023-04-21T04:56:00.944Z,25.29
2023-04-21T04:58:27.477Z,25.14
2023-04-21T05:00:54.419Z,24.97
2023-04-21T05:03:21.166Z,25.73
2023-04-21T05:05:47.922Z,25.55
2023-04-21T05:08:17.244Z,26.29
2023-04-21T05:10:44.607Z,26.51
2023-04-21T05:13:11.192Z,27.06
2023-04-21T05:15:37.737Z,27.81
2023-04-21T05:18:04.327Z,27.81
2023-04-21T05:20:30.928Z,27.56
2023-04-21T05:22:57.513Z,28.10
2023-04-21T05:25:24.081Z,27.85
2023-04-21T05:27:50.759Z,27.81
2023-04-21T05:30:17.369Z,28.89
2023-04-21T05:32:43.901Z,29.37
2023-04-21T05:35:10.677Z,28.93
2023-04-21T05:37:37.228Z,29.97
2023-04-21T05:40:03.931Z,29.96
2023-04-21T05:42:30.514Z,30.29
2023-04-21T05:44:58.019Z,30.61
2023-04-21T05:47:24.657Z,30.64
2023-04-21T05:49:53.466Z,30.60
2023-04-21T05:52:21.609Z,30.32
2023-04-21T05:54:48.330Z,31.55
2023-04-21T05:57:16.617Z,30.39
2023-04-21T05:59:43.777Z,30.42
2023-04-21T06:02:11.038Z,30.30
2023-04-21T06:04:37.911Z,30.39
2023-04-21T06:07:09.054Z,30.72
2023-04-21T06:09:36.284Z,30.89
2023-04-21T06:12:03.514Z,30.55
2023-04-21T06:14:30.271Z,30.98
2023-04-21T06:16:56.846Z,30.38
2023-04-21T06:19:23.743Z,30.88
2023-04-21T06:21:50.664Z,31.68
2023-04-21T06:24:24.397Z,30.60
2023-04-21T06:26:52.724Z,30.70
2023-04-21T06:29:19.953Z,30.22
2023-04-21T06:31:46.577Z,30.36
2023-04-21T06:34:13.246Z,31.34
2023-04-21T06:36:39.857Z,31.61
2023-04-21T06:39:06.524Z,31.95
2023-04-21T06:41:33.154Z,31.33
2023-04-21T06:43:59.730Z,32.21
2023-04-21T06:46:26.280Z,31.64
2023-04-21T06:48:52.920Z,31.66
2023-04-21T06:51:19.487Z,31.84
2023-04-21T06:53:46.068Z,32.19
2023-04-21T06:56:12.771Z,32.00
2023-04-21T06:58:39.363Z,32.38
2023-04-21T07:01:06.044Z,32.59
2023-04-21T07:03:32.768Z,32.39
2023-04-21T07:05:59.471Z,32.16
2023-04-21T07:08:26.250Z,33.35
2023-04-21T07:10:52.825Z,32.86
2023-04-21T07:13:19.563Z,32.56
2023-04-21T07:15:46.584Z,32.73
2023-04-21T07:18:13.217Z,32.65
2023-04-21T07:20:39.904Z,33.47
2023-04-21T07:23:06.610Z,32.59
2023-04-21T07:25:33.146Z,32.79
2023-04-21T07:27:59.747Z,33.16
2023-04-21T07:30:26.463Z,33.59
2023-04-21T07:32:53.134Z,33.18
2023-04-21T07:35:19.748Z,33.68
2023-04-21T07:37:46.433Z,33.94
2023-04-21T07:40:13.589Z,34.10
2023-04-21T07:42:40.232Z,34.22
2023-04-21T07:45:07.262Z,35.18
2023-04-21T07:47:34.003Z,34.76
2023-04-21T07:50:01.133Z,35.39
2023-04-21T07:52:27.709Z,34.74
2023-04-21T07:54:54.317Z,34.21
2023-04-21T07:57:20.959Z,34.44
2023-04-21T07:59:48.636Z,34.73
2023-04-21T08:02:15.384Z,34.44
2023-04-21T08:04:42.077Z,34.16
2023-04-21T08:07:10.075Z,33.78
2023-04-21T08:09:36.911Z,34.98
2023-04-21T08:12:03.539Z,33.34
2023-04-21T08:14:30.178Z,34.38
2023-04-21T08:16:57.428Z,34.58
2023-04-21T08:19:24.379Z,35.75
2023-04-21T08:21:51.226Z,35.56
2023-04-21T08:24:17.911Z,34.32
2023-04-21T08:26:44.991Z,35.19
2023-04-21T08:29:13.225Z,35.08
2023-04-21T08:31:40.341Z,34.76
2023-04-21T08:34:07.301Z,34.04
2023-04-21T08:36:34.068Z,34.47
2023-04-21T08:39:01.670Z,34.79
2023-04-21T08:41:28.296Z,33.92
2023-04-21T08:43:54.911Z,34.33
2023-04-21T08:46:23.837Z,34.18
2023-04-21T08:48:51.112Z,34.54
2023-04-21T08:51:22.981Z,35.13
2023-04-21T08:53:49.669Z,35.89
2023-04-21T08:56:16.664Z,35.75
2023-04-21T08:58:43.255Z,35.43
2023-04-21T09:01:09.820Z,35.44
2023-04-21T09:03:36.698Z,34.19
2023-04-21T09:06:09.641Z,36.07
2023-04-21T09:08:43.364Z,35.47
2023-04-21T09:11:14.399Z,37.95
2023-04-21T09:13:42.867Z,36.00
2023-04-21T09:16:18.485Z,35.08
2023-04-21T09:18:45.160Z,35.15
2023-04-21T09:21:17.413Z,36.10
2023-04-21T09:23:51.650Z,39.48
2023-04-21T09:26:20.262Z,37.96
2023-04-21T09:28:48.996Z,34.56
2023-04-21T09:31:21.019Z,32.75
2023-04-21T09:36:24.124Z,34.95
2023-04-21T09:41:32.032Z,30.73
2023-04-21T09:44:01.478Z,31.00
2023-04-21T09:46:30.723Z,30.36
2023-04-21T09:49:01.327Z,30.83
2023-04-21T09:51:49.083Z,31.50
2023-04-21T09:54:29.271Z,33.43
2023-04-21T09:57:01.722Z,33.02
2023-04-21T09:59:43.806Z,30.74
2023-04-21T10:02:13.261Z,30.50
2023-04-21T10:04:43.213Z,30.26
2023-04-21T10:07:10.892Z,31.58
2023-04-21T10:09:44.960Z,30.49
2023-04-21T10:12:13.486Z,30.85
2023-04-21T10:14:40.146Z,32.54
2023-04-21T10:17:08.386Z,32.35
2023-04-21T10:19:39.671Z,32.89
2023-04-21T10:22:08.475Z,32.48
2023-04-21T10:24:42.906Z,32.06
2023-04-21T10:27:13.350Z,31.93
2023-04-21T10:29:55.483Z,30.80
2023-04-21T10:32:43.045Z,31.05
2023-04-21T10:35:22.166Z,29.08
2023-04-21T10:37:51.400Z,30.04
2023-04-21T10:40:42.468Z,31.58
2023-04-21T10:43:45.912Z,31.99
2023-04-21T10:46:37.253Z,32.81
2023-04-21T10:49:10.218Z,33.10
2023-04-21T10:51:58.682Z,31.98
2023-04-21T10:54:26.863Z,32.82
2023-04-21T10:56:54.862Z,32.24
2023-04-21T10:59:22.282Z,32.02
2023-04-21T11:01:49.035Z,33.21
2023-04-21T11:04:16.486Z,31.84
2023-04-21T11:06:43.985Z,32.36
2023-04-21T11:09:10.645Z,33.34
2023-04-21T11:11:37.273Z,35.95
2023-04-21T11:14:03.863Z,35.85
2023-04-21T11:16:34.588Z,34.17
2023-04-21T11:19:01.119Z,33.46
2023-04-21T11:21:29.915Z,33.34
2023-04-21T11:23:57.848Z,32.52
2023-04-21T11:26:37.661Z,31.59
2023-04-21T11:29:08.828Z,31.98
2023-04-21T11:31:36.923Z,33.09
2023-04-21T11:34:05.314Z,32.43
2023-04-21T11:36:40.742Z,32.99
2023-04-21T11:39:10.012Z,33.45
2023-04-21T11:41:41.461Z,32.75
2023-04-21T11:44:08.957Z,32.80
2023-04-21T11:46:38.180Z,32.12
2023-04-21T11:49:11.604Z,31.23
2023-04-21T11:51:43.396Z,31.10
2023-04-21T11:54:14.459Z,31.26
2023-04-21T11:56:43.138Z,30.36
2023-04-21T11:59:26.476Z,31.13
2023-04-21T12:01:54.340Z,30.13
2023-04-21T12:04:25.912Z,30.10
2023-04-21T12:07:00.204Z,29.73
2023-04-21T12:09:27.664Z,29.72
2023-04-21T12:11:57.743Z,28.58
2023-04-21T12:14:26.942Z,27.31
2023-04-21T12:16:55.881Z,28.52
2023-04-21T12:19:36.443Z,28.59
2023-04-21T12:22:08.270Z,29.05
2023-04-21T12:24:36.716Z,28.58
2023-04-21T12:27:03.968Z,29.12
2023-04-21T12:29:30.616Z,28.25
2023-04-21T12:31:57.417Z,27.04
2023-04-21T12:34:24.081Z,26.91
2023-04-21T12:36:50.673Z,24.88
2023-04-21T12:39:18.736Z,24.75
2023-04-21T12:41:47.407Z,25.83
2023-04-21T12:44:14.514Z,25.21
2023-04-21T12:46:41.601Z,25.35
2023-04-21T12:49:09.922Z,26.15
2023-04-21T12:51:36.710Z,27.30
2023-04-21T12:54:04.573Z,27.29
2023-04-21T12:56:31.410Z,27.57
2023-04-21T12:58:58.463Z,28.00
2023-04-21T13:01:25.314Z,28.89
2023-04-21T13:03:52.110Z,28.52
2023-04-21T13:06:18.841Z,28.81
2023-04-21T13:08:45.412Z,29.83
2023-04-21T13:11:12.008Z,29.75
2023-04-21T13:13:39.471Z,29.07
2023-04-21T13:16:06.076Z,29.60
2023-04-21T13:18:34.800Z,29.81
2023-04-21T13:21:01.873Z,28.92
2023-04-21T13:23:28.660Z,29.17
2023-04-21T13:25:55.690Z,30.27
2023-04-21T13:28:22.852Z,30.19
2023-04-21T13:30:51.585Z,29.63
2023-04-21T13:33:19.286Z,30.67
2023-04-21T13:35:45.972Z,31.46
2023-04-21T13:38:12.816Z,33.30
2023-04-21T13:40:39.384Z,32.89
2023-04-21T13:43:05.912Z,33.14
2023-04-21T13:45:32.657Z,32.31
2023-04-21T13:47:59.314Z,32.02
2023-04-21T13:50:26.188Z,31.79
2023-04-21T13:52:52.710Z,31.34
2023-04-21T13:55:20.114Z,31.36
2023-04-21T13:57:46.867Z,29.70
2023-04-21T14:00:14.203Z,30.37
2023-04-21T14:02:41.985Z,29.77
2023-04-21T14:05:09.056Z,28.87
2023-04-21T14:07:36.520Z,28.89
2023-04-21T14:10:04.303Z,28.17
2023-04-21T14:12:31.017Z,27.70
2023-04-21T14:14:57.663Z,26.54
2023-04-21T14:17:24.337Z,25.64
2023-04-21T14:19:52.520Z,25.41
2023-04-21T14:22:20.651Z,24.87
2023-04-21T14:24:47.268Z,24.29
2023-04-21T14:27:14.458Z,24.04
2023-04-21T14:29:41.188Z,22.33
2023-04-21T14:32:07.952Z,22.62
2023-04-21T14:34:34.758Z,21.75
2023-04-21T14:37:01.635Z,21.61
2023-04-21T14:39:28.240Z,21.33
2023-04-21T14:41:55.354Z,21.64
2023-04-21T14:44:21.915Z,21.54
2023-04-21T14:47:01.014Z,21.80
2023-04-21T14:49:35.495Z,23.10
2023-04-21T14:52:03.492Z,23.24
2023-04-21T14:54:30.153Z,24.58
2023-04-21T14:57:10.491Z,24.06
2023-04-21T14:59:46.530Z,24.64
2023-04-21T15:02:13.741Z,24.02
2023-04-21T15:04:40.775Z,24.10
2023-04-21T15:07:07.422Z,24.81
2023-04-21T15:09:35.573Z,24.13
2023-04-21T15:12:02.768Z,23.71
2023-04-21T15:14:29.388Z,23.88
2023-04-21T15:16:56.050Z,23.62
2023-04-21T15:19:31.328Z,23.54
2023-04-21T15:21:58.295Z,24.25
2023-04-21T15:24:24.844Z,24.16
2023-04-21T15:26:51.404Z,24.06
2023-04-21T15:29:17.923Z,25.77
2023-04-21T15:31:44.823Z,26.48
2023-04-21T15:34:11.517Z,26.76
2023-04-21T15:36:38.035Z,27.23
2023-04-21T15:39:04.568Z,26.61
2023-04-21T15:41:31.560Z,27.30
2023-04-21T15:44:00.089Z,26.97
2023-04-21T15:46:26.744Z,26.94
2023-04-21T15:48:53.460Z,26.74
2023-04-21T15:51:20.441Z,27.25
2023-04-21T15:53:47.848Z,27.23
2023-04-21T15:56:15.703Z,26.51
2023-04-21T15:58:42.428Z,26.51
2023-04-21T16:01:09.163Z,26.70
2023-04-21T16:03:36.417Z,26.52
2023-04-21T16:06:03.283Z,26.76
2023-04-21T16:08:31.519Z,25.93
2023-04-21T16:10:58.099Z,26.37
2023-04-21T16:13:26.190Z,26.43
2023-04-21T16:15:52.794Z,26.75
2023-04-21T16:18:19.476Z,26.44
2023-04-21T16:20:46.555Z,26.05
2023-04-21T16:23:13.978Z,26.50
2023-04-21T16:25:40.990Z,26.02
2023-04-21T16:28:09.047Z,26.49
2023-04-21T16:30:36.216Z,26.40
2023-04-21T16:33:03.062Z,26.94
2023-04-21T16:35:29.808Z,27.80
2023-04-21T16:37:56.592Z,27.37
2023-04-21T16:40:24.518Z,27.77
2023-04-21T16:42:51.177Z,27.77
2023-04-21T16:45:17.873Z,27.88
2023-04-21T16:47:44.610Z,27.49
2023-04-21T16:50:11.418Z,27.11
2023-04-21T16:52:37.966Z,26.86
2023-04-21T16:55:04.880Z,26.41
2023-04-21T16:57:31.463Z,25.82
2023-04-21T16:59:59.069Z,26.15
2023-04-21T17:02:25.924Z,26.00
2023-04-21T17:04:52.687Z,26.26
2023-04-21T17:07:19.299Z,26.17
2023-04-21T17:09:45.891Z,26.45
2023-04-21T17:12:12.509Z,26.00
2023-04-21T17:14:39.461Z,25.40
2023-04-21T17:17:06.409Z,26.02
2023-04-21T17:19:33.037Z,27.07
2023-04-21T17:21:59.806Z,27.20
2023-04-21T17:24:29.543Z,26.97
2023-04-21T17:26:59.676Z,26.08
2023-04-21T17:29:26.869Z,26.00
2023-04-21T17:31:53.698Z,26.57
2023-04-21T17:34:20.416Z,25.80
2023-04-21T17:36:46.952Z,25.88
2023-04-21T17:39:14.086Z,26.30
2023-04-21T17:41:41.924Z,25.79
2023-04-21T17:44:08.529Z,25.34
2023-04-21T17:46:35.246Z,25.18
2023-04-21T17:49:01.914Z,25.91
2023-04-21T17:51:28.655Z,26.05
2023-04-21T17:53:55.298Z,25.95
2023-04-21T17:56:22.398Z,26.32
2023-04-21T17:58:49.024Z,26.44
2023-04-21T18:01:15.638Z,26.45
2023-04-21T18:03:43.336Z,27.16
2023-04-21T18:06:11.257Z,26.58
2023-04-21T18:08:38.032Z,27.08
2023-04-21T18:11:04.790Z,27.06
2023-04-21T18:13:31.316Z,26.75
2023-04-21T18:15:58.048Z,18.04
2023-04-21T18:18:25.527Z,9.65
2023-04-21T18:20:52.208Z,8.12
2023-04-21T18:23:18.736Z,7.29
2023-04-21T18:25:46.954Z,6.90
2023-04-21T18:28:14.277Z,7.08
2023-04-21T18:30:41.281Z,7.28
2023-04-21T18:33:09.046Z,7.48
2023-04-21T18:35:35.960Z,7.78
2023-04-21T18:38:02.489Z,7.32
2023-04-21T18:40:29.019Z,7.57
2023-04-21T18:42:56.028Z,8.13
2023-04-21T18:45:22.537Z,7.97
2023-04-21T18:47:49.052Z,7.97
2023-04-21T18:50:15.604Z,8.05
2023-04-21T18:52:42.148Z,8.69
2023-04-21T18:55:09.212Z,8.25
2023-04-21T18:57:35.728Z,9.13
2023-04-21T19:00:02.314Z,8.76
2023-04-21T19:02:29.098Z,9.28
2023-04-21T19:04:55.998Z,8.93
2023-04-21T19:07:22.632Z,9.02
2023-04-21T19:09:49.235Z,9.29
2023-04-21T19:12:16.427Z,9.29
2023-04-21T19:14:47.416Z,9.37
2023-04-21T19:17:14.822Z,9.48
2023-04-21T19:19:41.918Z,8.94
2023-04-21T19:22:08.580Z,9.52
2023-04-21T19:24:35.409Z,9.56
2023-04-21T19:27:03.465Z,9.93
2023-04-21T19:29:30.321Z,9.82
2023-04-21T19:31:56.923Z,9.54
2023-04-21T19:34:23.516Z,9.90
2023-04-21T19:36:51.583Z,10.03
2023-04-21T19:39:18.173Z,10.29
2023-04-21T19:41:44.755Z,10.54
2023-04-21T19:44:11.276Z,10.92
2023-04-21T19:46:37.906Z,10.53
2023-04-21T19:49:04.543Z,10.71
2023-04-21T19:51:31.054Z,11.57
2023-04-21T19:54:10.073Z,11.15
2023-04-21T19:56:38.114Z,11.43
2023-04-21T19:59:05.742Z,11.22
2023-04-21T20:01:33.147Z,11.13
2023-04-21T20:04:00.404Z,11.27
2023-04-21T20:06:28.547Z,11.48
2023-04-21T20:08:55.881Z,11.05
2023-04-21T20:11:23.096Z,10.71
2023-04-21T20:13:49.901Z,10.69
2023-04-21T20:16:18.176Z,10.52
2023-04-21T20:18:44.846Z,10.24
2023-04-21T20:21:11.356Z,10.52
2023-04-21T20:23:37.909Z,11.21
2023-04-21T20:26:04.500Z,11.02
2023-04-21T20:28:32.093Z,11.08
2023-04-21T20:30:58.708Z,11.76
2023-04-21T20:33:25.245Z,11.73
2023-04-21T20:35:52.426Z,11.63
2023-04-21T20:38:19.064Z,11.27
2023-04-21T20:40:46.386Z,11.24
2023-04-21T20:43:13.668Z,11.50
2023-04-21T20:45:41.199Z,11.17
2023-04-21T20:48:07.953Z,11.47
2023-04-21T20:50:34.528Z,11.84
2023-04-21T20:53:02.075Z,13.29
2023-04-21T20:55:28.743Z,13.84
2023-04-21T20:57:55.510Z,13.34
2023-04-21T21:00:22.456Z,13.97
2023-04-21T21:02:49.199Z,13.28
2023-04-21T21:05:15.868Z,12.81
2023-04-21T21:07:42.444Z,11.93
2023-04-21T21:10:11.224Z,11.87
2023-04-21T21:12:37.809Z,12.07
2023-04-21T21:15:05.385Z,12.00
2023-04-21T21:17:32.104Z,12.41
2023-04-21T21:19:58.714Z,12.17
2023-04-21T21:22:25.270Z,12.09
2023-04-21T21:24:51.848Z,12.07
2023-04-21T21:27:18.457Z,11.29
2023-04-21T21:29:45.111Z,10.55
2023-04-21T21:32:11.842Z,10.48
2023-04-21T21:34:38.477Z,9.90
2023-04-21T21:37:05.127Z,9.90
2023-04-21T21:39:31.833Z,9.83
2023-04-21T21:41:58.382Z,9.30
2023-04-21T21:44:24.943Z,9.06
2023-04-21T21:46:51.657Z,9.30
2023-04-21T21:49:18.331Z,9.45
2023-04-21T21:51:44.915Z,9.46
2023-04-21T21:54:11.494Z,9.43
2023-04-21T21:56:38.123Z,9.45
2023-04-21T21:59:04.812Z,9.34
2023-04-21T22:01:31.355Z,9.39
2023-04-21T22:03:57.969Z,9.60
2023-04-21T22:06:26.670Z,9.24
2023-04-21T22:08:53.318Z,9.29
2023-04-21T22:11:20.658Z,9.26
2023-04-21T22:13:47.176Z,8.78
2023-04-21T22:16:13.726Z,8.55
2023-04-21T22:18:40.418Z,7.84
2023-04-21T22:21:06.920Z,7.31
2023-04-21T22:23:33.487Z,7.80
2023-04-21T22:26:00.134Z,7.89
2023-04-21T22:28:26.706Z,7.85
2023-04-21T22:30:53.358Z,8.30
2023-04-21T22:33:19.975Z,8.29
2023-04-21T22:35:46.594Z,8.55
2023-04-21T22:38:13.112Z,7.86
2023-04-21T22:40:39.916Z,8.52
2023-04-21T22:43:06.536Z,8.05
2023-04-21T22:45:33.152Z,8.70
2023-04-21T22:47:59.696Z,8.58
2023-04-21T22:50:26.239Z,8.78
2023-04-21T22:52:52.836Z,9.41
2023-04-21T22:55:19.340Z,9.03
2023-04-21T22:57:46.003Z,8.78
2023-04-21T23:00:12.930Z,8.57
2023-04-21T23:02:39.693Z,8.45
2023-04-21T23:05:06.737Z,8.46
2023-04-21T23:07:33.394Z,8.59
2023-04-21T23:09:59.976Z,8.65
2023-04-21T23:12:26.552Z,9.47
2023-04-21T23:14:53.184Z,9.80
2023-04-21T23:17:19.745Z,10.03
2023-04-21T23:19:46.359Z,10.29
2023-04-21T23:22:12.992Z,9.82
2023-04-21T23:24:39.578Z,10.08
2023-04-21T23:27:06.149Z,10.29
2023-04-21T23:29:32.718Z,10.10
2023-04-21T23:31:59.393Z,9.96
2023-04-21T23:34:25.970Z,10.13
2023-04-21T23:36:52.461Z,10.53
2023-04-21T23:39:21.448Z,11.17
2023-04-21T23:41:48.292Z,11.58
2023-04-21T23:44:14.912Z,11.72
2023-04-21T23:46:41.688Z,9.81
2023-04-21T23:49:08.383Z,9.63
2023-04-21T23:51:35.222Z,10.62
2023-04-21T23:54:02.063Z,9.97
2023-04-21T23:56:29.062Z,10.93
2023-04-21T23:58:55.993Z,9.97
